Time;durP1;ratioP1;P1;durP2;ratioP2;P2;SDS_P1;SDS_P2;PMS_P1;PMS_P2;Temp;Humidity;BMP_temperature;BMP_pressure;BME280_temperature;BME280_humidity;BME280_pressure;Samples;Min_cycle;Max_cycle;Signal;HPM_P1;HPM_P2
2021/01/25 00:00:25;;;;;;;43.22;38.78;;;;;;;;;;5097068;28;20274;-79
2021/01/25 00:02:52;;;;;;;42.88;38.83;;;;;;;;;;5078582;28;20707;-79
2021/01/25 00:05:19;;;;;;;41.40;37.25;;;;;;;;;;5096606;28;20406;-79
2021/01/25 00:07:46;;;;;;;41.22;37.47;;;;;;;;;;5096410;28;20652;-79
2021/01/25 00:10:13;;;;;;;42.78;38.55;;;;;;;;;;5096820;28;20219;-79
2021/01/25 00:12:40;;;;;;;39.72;35.65;;;;;;;;;;5096496;28;20187;-78
2021/01/25 00:15:08;;;;;;;41.00;37.20;;;;;;;;;;5096669;28;20187;-79
2021/01/25 00:17:35;;;;;;;39.25;35.53;;;;;;;;;;5096364;28;20669;-79
2021/01/25 00:20:02;;;;;;;41.03;37.13;;;;;;;;;;5096730;28;20218;-79
2021/01/25 00:22:29;;;;;;;40.05;36.33;;;;;;;;;;5096528;28;20199;-79
2021/01/25 00:24:56;;;;;;;41.00;36.72;;;;;;;;;;5096367;28;20187;-79
2021/01/25 00:27:23;;;;;;;39.13;35.67;;;;;;;;;;5096575;28;20187;-79
2021/01/25 00:29:50;;;;;;;41.25;37.20;;;;;;;;;;5095516;28;20238;-79
2021/01/25 00:32:17;;;;;;;39.70;35.88;;;;;;;;;;5095440;28;20200;-79
2021/01/25 00:34:44;;;;;;;40.60;36.40;;;;;;;;;;5096442;28;20192;-79
2021/01/25 00:37:11;;;;;;;40.35;36.35;;;;;;;;;;5096087;28;20199;-79
2021/01/25 00:39:39;;;;;;;40.67;36.92;;;;;;;;;;5096096;28;20220;-79
2021/01/25 00:42:06;;;;;;;41.13;37.33;;;;;;;;;;5096064;28;20214;-79
2021/01/25 00:44:33;;;;;;;41.03;36.90;;;;;;;;;;5095781;28;20183;-79
2021/01/25 00:47:00;;;;;;;37.38;34.08;;;;;;;;;;5078041;28;20203;-79
2021/01/25 00:49:27;;;;;;;39.40;35.90;;;;;;;;;;5095477;28;20296;-79
2021/01/25 00:51:54;;;;;;;39.13;35.45;;;;;;;;;;5096169;28;20252;-79
2021/01/25 00:54:20;;;;;;;38.75;34.85;;;;;;;;;;5077984;28;20241;-79
2021/01/25 00:56:50;;;;;;;39.47;35.70;;;;;;;;;;5096394;28;20199;-79
2021/01/25 00:59:17;;;;;;;40.45;36.25;;;;;;;;;;5077921;28;20256;-79
2021/01/25 01:01:44;;;;;;;38.85;35.10;;;;;;;;;;5095874;28;20205;-79
2021/01/25 01:04:11;;;;;;;41.67;37.58;;;;;;;;;;5095498;28;20188;-79
2021/01/25 01:06:37;;;;;;;39.20;35.58;;;;;;;;;;5095799;28;20269;-79
2021/01/25 01:09:04;;;;;;;39.10;35.40;;;;;;;;;;5095365;28;20211;-79
2021/01/25 01:11:31;;;;;;;38.95;35.45;;;;;;;;;;5095631;28;20192;-79
2021/01/25 01:13:59;;;;;;;38.13;34.63;;;;;;;;;;5095390;28;20183;-79
2021/01/25 01:16:26;;;;;;;42.15;38.17;;;;;;;;;;5095533;28;20207;-79
2021/01/25 01:18:53;;;;;;;41.20;37.47;;;;;;;;;;5095570;28;20194;-79
2021/01/25 01:21:20;;;;;;;40.50;36.65;;;;;;;;;;5095223;28;20191;-79
2021/01/25 01:23:46;;;;;;;39.90;36.20;;;;;;;;;;5095368;28;20199;-79
2021/01/25 01:26:13;;;;;;;38.42;34.80;;;;;;;;;;5095983;28;20597;-79
2021/01/25 01:28:40;;;;;;;40.65;36.38;;;;;;;;;;5095260;28;20203;-79
2021/01/25 01:31:08;;;;;;;41.35;37.47;;;;;;;;;;5095032;28;20199;-79
2021/01/25 01:33:35;;;;;;;39.47;35.45;;;;;;;;;;5095279;28;20248;-79
2021/01/25 01:36:02;;;;;;;38.95;35.15;;;;;;;;;;5095273;28;20214;-79
2021/01/25 01:38:29;;;;;;;40.45;36.33;;;;;;;;;;5095086;28;20206;-79
2021/01/25 01:40:57;;;;;;;40.05;36.13;;;;;;;;;;5095077;28;20183;-79
2021/01/25 01:43:24;;;;;;;38.08;34.17;;;;;;;;;;5095006;28;20187;-79
2021/01/25 01:45:51;;;;;;;40.05;36.15;;;;;;;;;;5094720;28;20628;-79
2021/01/25 01:48:19;;;;;;;37.90;34.40;;;;;;;;;;5094983;28;20191;-79
2021/01/25 01:50:46;;;;;;;39.05;35.50;;;;;;;;;;5095484;28;20215;-79
2021/01/25 01:53:13;;;;;;;38.20;34.60;;;;;;;;;;5094648;28;20541;-79
2021/01/25 01:55:40;;;;;;;37.45;34.10;;;;;;;;;;5094888;28;20210;-79
2021/01/25 01:58:08;;;;;;;37.65;34.15;;;;;;;;;;5094493;28;20187;-79
2021/01/25 02:00:35;;;;;;;37.30;33.85;;;;;;;;;;5094759;28;20696;-79
2021/01/25 02:03:02;;;;;;;38.70;35.08;;;;;;;;;;5094523;28;20250;-79
2021/01/25 02:05:30;;;;;;;39.03;35.35;;;;;;;;;;5094324;28;20191;-79
2021/01/25 02:07:58;;;;;;;37.38;33.95;;;;;;;;;;5094255;28;20191;-79
2021/01/25 02:10:26;;;;;;;35.47;32.45;;;;;;;;;;5094832;28;20566;-79
2021/01/25 02:12:56;;;;;;;36.67;33.28;;;;;;;;;;5094551;28;20191;-79
2021/01/25 02:15:24;;;;;;;36.38;33.10;;;;;;;;;;5094245;28;20209;-79
2021/01/25 02:17:51;;;;;;;37.60;33.75;;;;;;;;;;5094219;28;20195;-79
2021/01/25 02:20:23;;;;;;;37.58;34.08;;;;;;;;;;5094101;28;20689;-79
2021/01/25 02:22:58;;;;;;;37.35;33.95;;;;;;;;;;5094233;28;20192;-78
2021/01/25 02:25:30;;;;;;;37.75;33.95;;;;;;;;;;5094034;28;20710;-79
2021/01/25 02:27:59;;;;;;;36.00;32.70;;;;;;;;;;5076099;28;20206;-79
2021/01/25 02:30:26;;;;;;;36.17;32.92;;;;;;;;;;5093655;28;20231;-79
2021/01/25 02:32:53;;;;;;;37.42;34.00;;;;;;;;;;5094228;28;20196;-79
2021/01/25 02:35:21;;;;;;;35.17;32.05;;;;;;;;;;5076143;28;20320;-79
2021/01/25 02:37:52;;;;;;;38.03;34.65;;;;;;;;;;5094145;28;20191;-79
2021/01/25 02:40:20;;;;;;;35.60;32.42;;;;;;;;;;5076803;28;20242;-79
2021/01/25 02:42:48;;;;;;;35.40;32.30;;;;;;;;;;5094064;28;20192;-79
2021/01/25 02:45:16;;;;;;;35.17;31.92;;;;;;;;;;5093396;28;20241;-79
2021/01/25 02:47:43;;;;;;;35.40;32.15;;;;;;;;;;5093858;28;20545;-79
2021/01/25 02:50:11;;;;;;;33.97;30.90;;;;;;;;;;5093897;28;20244;-80
2021/01/25 02:52:38;;;;;;;34.03;31.10;;;;;;;;;;5093942;28;20523;-79
2021/01/25 02:55:05;;;;;;;33.60;30.40;;;;;;;;;;5093172;28;20194;-79
2021/01/25 02:57:34;;;;;;;35.80;32.63;;;;;;;;;;5093644;28;20687;-79
2021/01/25 03:00:01;;;;;;;33.22;30.42;;;;;;;;;;5093613;28;20194;-79
2021/01/25 03:02:29;;;;;;;34.83;31.63;;;;;;;;;;5075498;28;20672;-79
2021/01/25 03:04:56;;;;;;;34.70;31.92;;;;;;;;;;5076366;28;20256;-79
2021/01/25 03:07:23;;;;;;;33.83;31.08;;;;;;;;;;5093546;28;20202;-79
2021/01/25 03:09:50;;;;;;;34.63;31.58;;;;;;;;;;5093425;28;20222;-79
2021/01/25 03:12:17;;;;;;;32.90;29.88;;;;;;;;;;5094401;28;20279;-79
2021/01/25 03:14:44;;;;;;;33.25;30.45;;;;;;;;;;5093442;28;20188;-79
2021/01/25 03:17:11;;;;;;;35.45;31.75;;;;;;;;;;5093762;28;20187;-79
2021/01/25 03:19:39;;;;;;;34.95;31.85;;;;;;;;;;5093816;28;20191;-79
2021/01/25 03:22:06;;;;;;;33.17;30.45;;;;;;;;;;5076152;28;20248;-79
2021/01/25 03:24:33;;;;;;;33.30;30.50;;;;;;;;;;5093294;28;20194;-79
2021/01/25 03:27:00;;;;;;;33.13;30.42;;;;;;;;;;5093440;28;20190;-79
2021/01/25 03:29:27;;;;;;;35.13;30.83;;;;;;;;;;5093562;28;20222;-79
2021/01/25 03:31:54;;;;;;;32.75;30.00;;;;;;;;;;5075239;28;20537;-78
2021/01/25 03:34:21;;;;;;;32.17;29.58;;;;;;;;;;5092997;28;20206;-79
2021/01/25 03:36:49;;;;;;;38.20;32.28;;;;;;;;;;5075422;28;20191;-78
2021/01/25 03:39:15;;;;;;;32.50;29.70;;;;;;;;;;5093469;28;20226;-79
2021/01/25 03:41:42;;;;;;;33.50;30.98;;;;;;;;;;5093164;28;20187;-78
2021/01/25 03:44:09;;;;;;;32.63;30.05;;;;;;;;;;5075581;28;20572;-79
2021/01/25 03:46:36;;;;;;;32.28;29.65;;;;;;;;;;5093117;28;20233;-79
2021/01/25 03:49:03;;;;;;;29.58;27.17;;;;;;;;;;5093071;28;20214;-78
2021/01/25 03:51:30;;;;;;;33.10;30.40;;;;;;;;;;5093268;28;20206;-79
2021/01/25 03:53:58;;;;;;;32.65;30.15;;;;;;;;;;5093440;28;20187;-79
2021/01/25 03:56:24;;;;;;;30.95;28.10;;;;;;;;;;5093111;28;20195;-79
2021/01/25 03:58:51;;;;;;;34.60;31.55;;;;;;;;;;5092994;28;20191;-79
2021/01/25 04:01:18;;;;;;;32.40;29.48;;;;;;;;;;5093222;28;20252;-78
2021/01/25 04:03:45;;;;;;;32.67;29.75;;;;;;;;;;5093080;28;20567;-79
2021/01/25 04:06:12;;;;;;;34.78;31.50;;;;;;;;;;5095017;28;20191;-78
2021/01/25 04:08:39;;;;;;;34.85;31.58;;;;;;;;;;5097704;28;20205;-79
2021/01/25 04:11:06;;;;;;;34.65;31.55;;;;;;;;;;5096514;28;20288;-79
2021/01/25 04:13:33;;;;;;;34.13;31.02;;;;;;;;;;5096707;28;20187;-79
2021/01/25 04:16:00;;;;;;;36.88;33.50;;;;;;;;;;5096873;28;20547;-78
2021/01/25 04:18:27;;;;;;;37.47;34.13;;;;;;;;;;5096443;28;20187;-79
2021/01/25 04:20:54;;;;;;;36.92;33.47;;;;;;;;;;5096780;28;20196;-79
2021/01/25 04:23:21;;;;;;;35.65;32.42;;;;;;;;;;5096294;28;20194;-79
2021/01/25 04:25:47;;;;;;;38.30;34.40;;;;;;;;;;5096629;28;20183;-79
2021/01/25 04:28:15;;;;;;;37.25;33.30;;;;;;;;;;5096326;28;20190;-79
2021/01/25 04:30:42;;;;;;;36.80;33.35;;;;;;;;;;5078219;28;20227;-79
2021/01/25 04:33:09;;;;;;;36.38;33.10;;;;;;;;;;5096134;28;20240;-79
2021/01/25 04:35:39;;;;;;;36.70;33.28;;;;;;;;;;5077972;28;20557;-79
2021/01/25 04:38:06;;;;;;;35.03;32.10;;;;;;;;;;5096086;28;20191;-79
2021/01/25 04:40:33;;;;;;;34.60;31.70;;;;;;;;;;5095907;28;20218;-79
2021/01/25 04:43:01;;;;;;;34.92;31.70;;;;;;;;;;5096239;28;20192;-79
2021/01/25 04:45:29;;;;;;;34.85;31.83;;;;;;;;;;5096056;28;20238;-79
2021/01/25 04:47:56;;;;;;;36.70;33.40;;;;;;;;;;5095914;28;20660;-79
2021/01/25 04:50:23;;;;;;;33.97;30.83;;;;;;;;;;5096039;28;20230;-78
2021/01/25 04:52:50;;;;;;;36.95;33.38;;;;;;;;;;5095754;28;20191;-79
2021/01/25 04:55:17;;;;;;;35.80;32.50;;;;;;;;;;5077974;28;20199;-79
2021/01/25 04:57:45;;;;;;;36.60;33.17;;;;;;;;;;5096095;28;20196;-79
2021/01/25 05:00:12;;;;;;;35.55;32.30;;;;;;;;;;5095902;28;20194;-78
2021/01/25 05:02:41;;;;;;;36.55;33.15;;;;;;;;;;5077701;28;20203;-79
2021/01/25 05:05:08;;;;;;;33.95;30.85;;;;;;;;;;5095918;28;20284;-79
2021/01/25 05:07:35;;;;;;;35.90;32.45;;;;;;;;;;5095855;28;20194;-79
2021/01/25 05:10:03;;;;;;;35.97;32.88;;;;;;;;;;5095389;28;20224;-79
2021/01/25 05:12:41;;;;;;;34.22;31.23;;;;;;;;;;5095474;28;20184;-79
2021/01/25 05:15:08;;;;;;;36.28;33.03;;;;;;;;;;5095560;28;20236;-79
2021/01/25 05:17:37;;;;;;;34.13;31.42;;;;;;;;;;5095375;28;20270;-79
2021/01/25 05:20:07;;;;;;;36.03;32.83;;;;;;;;;;5077190;28;20221;-78
2021/01/25 05:22:37;;;;;;;36.00;32.58;;;;;;;;;;5095428;28;20191;-78
2021/01/25 05:25:07;;;;;;;33.83;31.15;;;;;;;;;;5094853;28;20231;-78
2021/01/25 05:27:34;;;;;;;35.80;32.75;;;;;;;;;;5095430;28;20187;-78
2021/01/25 05:30:08;;;;;;;35.15;31.90;;;;;;;;;;5077383;28;20218;-79
2021/01/25 05:32:44;;;;;;;34.85;31.63;;;;;;;;;;5095421;28;20210;-78
2021/01/25 05:35:12;;;;;;;35.47;32.33;;;;;;;;;;5095049;28;20209;-78
2021/01/25 05:37:41;;;;;;;34.40;31.67;;;;;;;;;;5077739;28;20202;-78
2021/01/25 05:40:09;;;;;;;34.30;31.45;;;;;;;;;;5095164;28;20269;-78
2021/01/25 05:42:36;;;;;;;33.97;30.98;;;;;;;;;;5095163;28;20191;-78
2021/01/25 05:45:06;;;;;;;35.47;31.90;;;;;;;;;;5094532;28;20230;-76
2021/01/25 05:47:43;;;;;;;35.72;32.63;;;;;;;;;;5104058;28;20527;-78
2021/01/25 05:50:11;;;;;;;34.35;31.27;;;;;;;;;;5079072;28;20207;-79
2021/01/25 05:52:43;;;;;;;33.40;30.50;;;;;;;;;;5102262;28;20214;-78
2021/01/25 05:55:11;;;;;;;34.92;31.73;;;;;;;;;;5105082;28;20182;-77
2021/01/25 05:57:38;;;;;;;33.75;31.05;;;;;;;;;;5103782;28;20575;-78
2021/01/25 06:00:07;;;;;;;33.97;31.08;;;;;;;;;;5097980;28;20188;-77
2021/01/25 06:02:36;;;;;;;32.72;29.98;;;;;;;;;;5094332;28;20187;-78
2021/01/25 06:05:04;;;;;;;33.30;30.58;;;;;;;;;;5094856;28;20531;-78
2021/01/25 06:07:32;;;;;;;31.92;29.52;;;;;;;;;;5076752;28;20264;-78
2021/01/25 06:10:03;;;;;;;32.67;30.08;;;;;;;;;;5094141;28;20214;-78
2021/01/25 06:12:32;;;;;;;33.63;30.83;;;;;;;;;;5094120;28;20183;-77
2021/01/25 06:15:03;;;;;;;33.95;31.13;;;;;;;;;;5094019;28;20705;-78
2021/01/25 06:17:32;;;;;;;33.80;30.80;;;;;;;;;;5093776;28;20198;-78
2021/01/25 06:19:58;;;;;;;31.33;28.83;;;;;;;;;;5094133;28;20191;-78
2021/01/25 06:22:25;;;;;;;31.85;29.35;;;;;;;;;;5093997;28;20564;-78
2021/01/25 06:24:52;;;;;;;32.80;30.10;;;;;;;;;;5094355;28;20213;-77
2021/01/25 06:27:23;;;;;;;32.45;29.67;;;;;;;;;;5093981;28;20186;-78
2021/01/25 06:29:51;;;;;;;32.17;29.58;;;;;;;;;;5093184;28;20254;-78
2021/01/25 06:32:18;;;;;;;32.50;29.73;;;;;;;;;;5094213;28;20220;-78
2021/01/25 06:34:45;;;;;;;32.20;29.60;;;;;;;;;;5093801;28;20187;-78
2021/01/25 06:37:14;;;;;;;34.72;31.77;;;;;;;;;;5094226;28;20694;-78
2021/01/25 06:39:45;;;;;;;32.33;29.73;;;;;;;;;;5093765;28;20221;-78
2021/01/25 06:42:16;;;;;;;32.28;29.65;;;;;;;;;;5093831;28;20240;-78
2021/01/25 06:44:45;;;;;;;33.92;30.65;;;;;;;;;;5093671;28;20202;-78
2021/01/25 06:47:15;;;;;;;32.25;29.60;;;;;;;;;;5094086;28;20606;-78
2021/01/25 06:49:44;;;;;;;32.00;28.90;;;;;;;;;;5093519;28;20692;-78
2021/01/25 06:52:12;;;;;;;32.67;30.08;;;;;;;;;;5093879;28;20187;-78
2021/01/25 06:54:42;;;;;;;33.22;30.52;;;;;;;;;;5093968;28;20183;-78
2021/01/25 06:57:09;;;;;;;31.25;28.55;;;;;;;;;;5093669;28;20240;-79
2021/01/25 06:59:38;;;;;;;31.45;28.55;;;;;;;;;;5093926;28;20226;-79
2021/01/25 07:02:09;;;;;;;30.67;28.42;;;;;;;;;;5093685;28;20650;-78
2021/01/25 07:04:41;;;;;;;31.33;28.83;;;;;;;;;;5093572;28;20187;-78
2021/01/25 07:07:08;;;;;;;33.30;30.70;;;;;;;;;;5093931;28;20221;-78
2021/01/25 07:09:35;;;;;;;30.83;28.52;;;;;;;;;;5093571;28;20570;-78
2021/01/25 07:12:03;;;;;;;31.52;29.13;;;;;;;;;;5093383;28;20198;-78
2021/01/25 07:14:30;;;;;;;32.63;30.13;;;;;;;;;;5093637;28;20186;-78
2021/01/25 07:16:58;;;;;;;31.23;28.65;;;;;;;;;;5092150;28;20305;-82
2021/01/25 07:19:26;;;;;;;29.90;27.60;;;;;;;;;;5093436;28;20273;-76
2021/01/25 07:21:54;;;;;;;31.50;28.85;;;;;;;;;;5093613;28;20198;-83
2021/01/25 07:24:21;;;;;;;31.98;29.58;;;;;;;;;;5093866;28;20187;-81
2021/01/25 07:26:51;;;;;;;32.90;30.33;;;;;;;;;;5093785;28;20244;-76
2021/01/25 07:29:19;;;;;;;32.03;29.35;;;;;;;;;;5093443;28;20198;-77
2021/01/25 07:31:45;;;;;;;32.88;30.38;;;;;;;;;;5093556;28;20191;-79
2021/01/25 07:34:13;;;;;;;33.45;30.58;;;;;;;;;;5093380;28;20187;-77
2021/01/25 07:36:41;;;;;;;32.28;29.58;;;;;;;;;;5093561;28;20191;-78
2021/01/25 07:39:08;;;;;;;32.55;30.00;;;;;;;;;;5092787;28;20215;-76
2021/01/25 07:41:35;;;;;;;30.92;28.38;;;;;;;;;;5097532;28;20241;-82
2021/01/25 07:44:03;;;;;;;32.40;29.70;;;;;;;;;;5096822;28;20555;-81
2021/01/25 07:46:30;;;;;;;31.52;28.70;;;;;;;;;;5097059;28;20234;-79
2021/01/25 07:48:56;;;;;;;32.15;29.55;;;;;;;;;;5097274;28;20183;-77
2021/01/25 07:51:24;;;;;;;30.70;28.20;;;;;;;;;;5096949;28;20680;-80
2021/01/25 07:53:51;;;;;;;31.70;29.20;;;;;;;;;;5097165;28;20542;-79
2021/01/25 07:56:19;;;;;;;32.72;29.95;;;;;;;;;;5097121;28;20221;-82
2021/01/25 07:58:47;;;;;;;33.55;30.52;;;;;;;;;;5097027;28;20195;-81
2021/01/25 08:01:16;;;;;;;31.63;29.13;;;;;;;;;;5097122;28;20588;-80
2021/01/25 08:03:43;;;;;;;32.25;29.55;;;;;;;;;;5096880;28;20191;-80
2021/01/25 08:06:11;;;;;;;32.53;29.70;;;;;;;;;;5096654;28;20198;-81
2021/01/25 08:08:38;;;;;;;32.42;29.90;;;;;;;;;;5096178;28;20187;-82
2021/01/25 08:11:08;;;;;;;31.40;28.85;;;;;;;;;;5096580;28;20214;-80
2021/01/25 08:13:39;;;;;;;32.30;29.60;;;;;;;;;;5096451;28;20194;-77
2021/01/25 08:16:08;;;;;;;31.40;28.60;;;;;;;;;;5096490;28;20195;-76
2021/01/25 08:18:37;;;;;;;32.72;30.02;;;;;;;;;;5096352;28;20195;-76
2021/01/25 08:21:06;;;;;;;33.85;30.85;;;;;;;;;;5096703;28;20187;-76
2021/01/25 08:23:35;;;;;;;33.13;30.35;;;;;;;;;;5096433;28;20187;-76
2021/01/25 08:26:03;;;;;;;34.40;31.55;;;;;;;;;;5096605;28;20183;-76
2021/01/25 08:28:32;;;;;;;33.58;30.80;;;;;;;;;;5096415;28;20202;-76
2021/01/25 08:31:08;;;;;;;33.00;30.30;;;;;;;;;;5096101;28;20246;-76
2021/01/25 08:33:36;;;;;;;34.65;31.42;;;;;;;;;;5096144;28;20190;-75
2021/01/25 08:36:05;;;;;;;33.35;30.65;;;;;;;;;;5096150;28;20633;-76
2021/01/25 08:38:32;;;;;;;34.42;31.63;;;;;;;;;;5096059;28;20696;-78
2021/01/25 08:41:00;;;;;;;34.55;31.48;;;;;;;;;;5096214;28;20188;-77
2021/01/25 08:43:28;;;;;;;33.08;30.58;;;;;;;;;;5095822;28;20570;-78
2021/01/25 08:45:56;;;;;;;32.90;30.30;;;;;;;;;;5095708;28;20230;-78
2021/01/25 08:48:32;;;;;;;33.75;30.95;;;;;;;;;;5077940;28;20652;-76
2021/01/25 08:51:08;;;;;;;33.53;30.30;;;;;;;;;;5095099;28;20218;-77
2021/01/25 08:53:35;;;;;;;33.03;30.38;;;;;;;;;;5095667;28;20223;-76
2021/01/25 08:56:11;;;;;;;34.45;31.50;;;;;;;;;;5095630;28;20187;-78
2021/01/25 08:58:38;;;;;;;32.83;30.40;;;;;;;;;;5095617;28;20689;-76
2021/01/25 09:01:13;;;;;;;33.45;30.73;;;;;;;;;;5095876;28;20188;-76
2021/01/25 09:03:41;;;;;;;33.10;30.40;;;;;;;;;;5095639;28;20600;-77
2021/01/25 09:06:10;;;;;;;33.63;30.83;;;;;;;;;;5095802;28;20191;-77
2021/01/25 09:08:36;;;;;;;32.95;30.40;;;;;;;;;;5095875;28;20193;-77
2021/01/25 09:11:04;;;;;;;32.35;29.77;;;;;;;;;;5095108;28;20230;-76
2021/01/25 09:13:31;;;;;;;33.78;30.85;;;;;;;;;;5095021;28;20208;-76
2021/01/25 09:15:58;;;;;;;34.45;31.55;;;;;;;;;;5095637;28;20188;-78
2021/01/25 09:18:25;;;;;;;32.83;30.02;;;;;;;;;;5095293;28;20629;-77
2021/01/25 09:20:52;;;;;;;32.65;29.95;;;;;;;;;;5095444;28;20255;-77
2021/01/25 09:23:19;;;;;;;33.65;30.92;;;;;;;;;;5095384;28;20544;-78
2021/01/25 09:25:46;;;;;;;33.92;31.33;;;;;;;;;;5095146;28;20195;-84
2021/01/25 09:28:13;;;;;;;31.73;29.20;;;;;;;;;;5095461;28;20208;-84
2021/01/25 09:30:40;;;;;;;35.00;32.25;;;;;;;;;;5095466;28;20207;-82
2021/01/25 09:33:07;;;;;;;36.10;33.10;;;;;;;;;;5095663;28;20549;-82
2021/01/25 09:35:35;;;;;;;34.28;31.58;;;;;;;;;;5095173;28;20202;-84
2021/01/25 09:38:02;;;;;;;37.60;34.33;;;;;;;;;;5095061;28;20199;-75
2021/01/25 09:40:33;;;;;;;45.65;41.00;;;;;;;;;;5094772;28;20198;-80
2021/01/25 09:43:00;;;;;;;43.70;39.95;;;;;;;;;;5076521;28;20209;-80
2021/01/25 09:45:27;;;;;;;32.15;29.70;;;;;;;;;;5076698;28;20231;-80
2021/01/25 09:47:53;;;;;;;31.67;28.58;;;;;;;;;;5094528;28;20553;-80
2021/01/25 09:50:21;;;;;;;35.60;32.60;;;;;;;;;;5094979;28;20218;-74
2021/01/25 09:52:48;;;;;;;33.38;30.80;;;;;;;;;;5094648;28;20198;-75
2021/01/25 09:55:17;;;;;;;31.48;29.00;;;;;;;;;;5076563;28;20653;-75
2021/01/25 09:57:44;;;;;;;31.63;29.05;;;;;;;;;;5094632;28;20187;-75
2021/01/25 10:00:12;;;;;;;36.35;32.85;;;;;;;;;;5094765;28;20252;-75
2021/01/25 10:02:39;;;;;;;31.63;29.23;;;;;;;;;;5094345;28;20187;-75
2021/01/25 10:05:07;;;;;;;32.58;30.05;;;;;;;;;;5094004;28;20198;-75
2021/01/25 10:07:35;;;;;;;39.80;36.60;;;;;;;;;;5094394;28;20610;-75
2021/01/25 10:10:02;;;;;;;34.38;31.40;;;;;;;;;;5094543;28;20215;-74
2021/01/25 10:12:30;;;;;;;31.10;28.70;;;;;;;;;;5094600;28;20202;-79
2021/01/25 10:14:57;;;;;;;33.92;31.08;;;;;;;;;;5094481;28;20198;-78
2021/01/25 10:17:24;;;;;;;31.60;29.02;;;;;;;;;;5094431;28;20199;-83
2021/01/25 10:19:51;;;;;;;35.05;31.90;;;;;;;;;;5094144;28;20195;-78
2021/01/25 10:22:17;;;;;;;46.67;42.55;;;;;;;;;;5094318;28;20200;-78
2021/01/25 10:24:44;;;;;;;32.65;29.52;;;;;;;;;;5093999;28;20253;-78
2021/01/25 10:27:11;;;;;;;31.42;28.90;;;;;;;;;;5094203;28;20203;-77
2021/01/25 10:29:39;;;;;;;31.25;28.58;;;;;;;;;;5093899;28;20199;-78
2021/01/25 10:32:06;;;;;;;32.42;29.65;;;;;;;;;;5094232;28;20210;-77
2021/01/25 10:34:33;;;;;;;30.90;28.48;;;;;;;;;;5094275;28;20206;-83
2021/01/25 10:36:59;;;;;;;32.28;29.48;;;;;;;;;;5094272;28;20557;-78
2021/01/25 10:39:26;;;;;;;31.63;29.02;;;;;;;;;;5093776;28;20222;-78
2021/01/25 10:41:53;;;;;;;32.55;29.95;;;;;;;;;;5094051;28;20187;-79
2021/01/25 10:44:20;;;;;;;32.70;30.17;;;;;;;;;;5093738;28;20195;-79
2021/01/25 10:46:48;;;;;;;31.77;29.38;;;;;;;;;;5093515;28;20703;-78
2021/01/25 10:49:15;;;;;;;33.45;30.75;;;;;;;;;;5094056;28;20187;-78
2021/01/25 10:51:42;;;;;;;33.58;30.88;;;;;;;;;;5093531;28;20238;-79
2021/01/25 10:54:09;;;;;;;31.45;28.85;;;;;;;;;;5093619;28;20602;-78
2021/01/25 10:56:35;;;;;;;34.65;31.65;;;;;;;;;;5093637;28;20188;-79
2021/01/25 10:59:05;;;;;;;32.75;30.15;;;;;;;;;;5093853;28;20188;-78
2021/01/25 11:01:32;;;;;;;30.67;28.38;;;;;;;;;;5093845;28;20660;-79
2021/01/25 11:04:00;;;;;;;32.53;29.90;;;;;;;;;;5093807;28;20245;-78
2021/01/25 11:06:27;;;;;;;31.67;28.92;;;;;;;;;;5093653;28;20203;-78
2021/01/25 11:08:54;;;;;;;31.80;29.30;;;;;;;;;;5093883;28;20346;-79
2021/01/25 11:11:21;;;;;;;32.80;30.08;;;;;;;;;;5093632;28;20264;-81
2021/01/25 11:13:48;;;;;;;32.03;29.48;;;;;;;;;;5093396;28;20187;-78
2021/01/25 11:16:14;;;;;;;31.67;28.95;;;;;;;;;;5097186;28;20190;-78
2021/01/25 11:18:41;;;;;;;31.80;29.23;;;;;;;;;;5097738;28;20187;-78
2021/01/25 11:21:09;;;;;;;32.80;30.20;;;;;;;;;;5097843;28;20187;-79
2021/01/25 11:23:36;;;;;;;31.25;28.73;;;;;;;;;;5097594;28;20580;-78
2021/01/25 11:26:04;;;;;;;33.00;30.52;;;;;;;;;;5097891;28;20196;-78
2021/01/25 11:28:31;;;;;;;35.88;31.70;;;;;;;;;;5098240;28;20191;-78
2021/01/25 11:30:58;;;;;;;33.08;30.38;;;;;;;;;;5097633;28;20214;-78
2021/01/25 11:33:25;;;;;;;32.60;29.80;;;;;;;;;;5097713;28;20590;-79
2021/01/25 11:35:51;;;;;;;34.13;31.42;;;;;;;;;;5097817;28;20196;-79
2021/01/25 11:38:20;;;;;;;32.63;30.13;;;;;;;;;;5098085;28;20219;-78
2021/01/25 11:40:47;;;;;;;33.38;30.52;;;;;;;;;;5098162;28;20665;-79
2021/01/25 11:43:14;;;;;;;31.83;29.33;;;;;;;;;;5097782;28;20207;-79
2021/01/25 11:45:41;;;;;;;32.15;29.55;;;;;;;;;;5097894;28;20234;-79
2021/01/25 11:48:08;;;;;;;34.83;31.50;;;;;;;;;;5097925;28;20690;-78
2021/01/25 11:50:35;;;;;;;32.47;29.73;;;;;;;;;;5097880;28;20268;-79
2021/01/25 11:53:02;;;;;;;31.40;28.80;;;;;;;;;;5097899;28;20183;-79
2021/01/25 11:55:29;;;;;;;31.50;28.55;;;;;;;;;;5097786;28;20574;-78
2021/01/25 11:57:56;;;;;;;33.13;30.52;;;;;;;;;;5097220;28;20211;-78
2021/01/25 12:00:23;;;;;;;31.40;28.95;;;;;;;;;;5097014;28;20190;-77
2021/01/25 12:02:50;;;;;;;31.33;28.70;;;;;;;;;;5097162;28;20183;-77
2021/01/25 12:05:17;;;;;;;31.85;28.92;;;;;;;;;;5096764;28;20190;-77
2021/01/25 12:07:44;;;;;;;32.53;29.73;;;;;;;;;;5097040;28;20214;-77
2021/01/25 12:10:12;;;;;;;32.72;29.73;;;;;;;;;;5078555;28;20277;-77
2021/01/25 12:12:39;;;;;;;32.60;29.95;;;;;;;;;;5096558;28;20189;-77
2021/01/25 12:15:08;;;;;;;33.28;30.20;;;;;;;;;;5096266;28;20197;-77
2021/01/25 12:17:34;;;;;;;32.15;29.45;;;;;;;;;;5096435;28;20198;-77
2021/01/25 12:20:01;;;;;;;33.85;31.05;;;;;;;;;;5096963;28;20231;-78
2021/01/25 12:22:28;;;;;;;33.25;30.60;;;;;;;;;;5096365;28;20187;-77
2021/01/25 12:24:55;;;;;;;32.35;29.65;;;;;;;;;;5096622;28;20218;-77
2021/01/25 12:27:22;;;;;;;32.42;29.73;;;;;;;;;;5095534;28;20187;-78
2021/01/25 12:29:50;;;;;;;32.30;29.58;;;;;;;;;;5096238;28;20275;-78
2021/01/25 12:32:17;;;;;;;34.67;31.77;;;;;;;;;;5096627;28;20575;-78
2021/01/25 12:34:44;;;;;;;33.92;31.13;;;;;;;;;;5096503;28;20196;-79
2021/01/25 12:37:11;;;;;;;34.85;31.85;;;;;;;;;;5096453;28;20642;-78
2021/01/25 12:39:38;;;;;;;32.47;29.85;;;;;;;;;;5096321;28;20219;-78
2021/01/25 12:42:05;;;;;;;34.70;31.67;;;;;;;;;;5096370;28;20188;-77
2021/01/25 12:44:32;;;;;;;33.95;31.25;;;;;;;;;;5096116;28;20185;-78
2021/01/25 12:47:00;;;;;;;34.60;31.70;;;;;;;;;;5095755;28;20226;-78
2021/01/25 12:49:27;;;;;;;34.15;31.35;;;;;;;;;;5095928;28;20653;-78
2021/01/25 12:51:55;;;;;;;32.60;29.75;;;;;;;;;;5078170;28;20210;-78
2021/01/25 12:54:22;;;;;;;32.92;30.23;;;;;;;;;;5095781;28;20188;-77
2021/01/25 12:56:49;;;;;;;33.05;30.08;;;;;;;;;;5096093;28;20241;-78
2021/01/25 12:59:17;;;;;;;32.22;29.83;;;;;;;;;;5096111;28;20217;-78
2021/01/25 13:01:43;;;;;;;33.45;30.65;;;;;;;;;;5095632;28;20189;-78
2021/01/25 13:04:11;;;;;;;33.38;30.50;;;;;;;;;;5095889;28;20648;-77
2021/01/25 13:06:38;;;;;;;33.88;31.13;;;;;;;;;;5095601;28;20188;-78
2021/01/25 13:09:05;;;;;;;32.17;29.58;;;;;;;;;;5095576;28;20192;-78
2021/01/25 13:11:32;;;;;;;34.00;31.05;;;;;;;;;;5095690;28;20215;-78
2021/01/25 13:13:59;;;;;;;33.10;30.23;;;;;;;;;;5094141;28;20183;-78
2021/01/25 13:16:28;;;;;;;33.83;30.90;;;;;;;;;;5095627;28;20246;-77
2021/01/25 13:18:55;;;;;;;34.50;31.60;;;;;;;;;;5095698;28;20195;-78
2021/01/25 13:21:22;;;;;;;34.05;31.35;;;;;;;;;;5095266;28;20188;-78
2021/01/25 13:23:49;;;;;;;33.65;30.75;;;;;;;;;;5095648;28;20190;-78
2021/01/25 13:26:16;;;;;;;34.55;31.65;;;;;;;;;;5095259;28;20187;-77
2021/01/25 13:28:43;;;;;;;35.03;31.90;;;;;;;;;;5095522;28;20190;-77
2021/01/25 13:31:10;;;;;;;35.80;32.53;;;;;;;;;;5095426;28;20584;-78
2021/01/25 13:33:37;;;;;;;34.70;31.27;;;;;;;;;;5095313;28;20237;-79
2021/01/25 13:36:04;;;;;;;35.72;32.63;;;;;;;;;;5095281;28;20295;-78
2021/01/25 13:38:32;;;;;;;35.60;32.67;;;;;;;;;;5094869;28;20215;-78
2021/01/25 13:40:59;;;;;;;35.30;32.40;;;;;;;;;;5094860;28;20641;-78
2021/01/25 13:43:26;;;;;;;32.72;30.13;;;;;;;;;;5094448;28;20218;-80
2021/01/25 13:45:54;;;;;;;34.13;31.33;;;;;;;;;;5094942;28;20274;-81
2021/01/25 13:48:21;;;;;;;34.97;31.98;;;;;;;;;;5094784;28;20194;-80
2021/01/25 13:50:48;;;;;;;33.03;30.33;;;;;;;;;;5094571;28;20226;-81
2021/01/25 13:53:15;;;;;;;35.28;32.17;;;;;;;;;;5094731;28;20223;-80
2021/01/25 13:55:45;;;;;;;34.50;31.63;;;;;;;;;;5095202;28;20203;-81
2021/01/25 13:58:12;;;;;;;33.00;30.02;;;;;;;;;;5094524;28;20191;-81
2021/01/25 14:00:39;;;;;;;34.38;31.48;;;;;;;;;;5094602;28;20197;-80
2021/01/25 14:03:06;;;;;;;32.58;30.08;;;;;;;;;;5094795;28;20203;-80
2021/01/25 14:05:33;;;;;;;34.53;31.60;;;;;;;;;;5093144;28;20191;-81
2021/01/25 14:07:59;;;;;;;33.38;30.75;;;;;;;;;;5094643;28;20206;-80
2021/01/25 14:10:27;;;;;;;30.25;27.95;;;;;;;;;;5094284;28;20331;-80
2021/01/25 14:12:55;;;;;;;33.88;30.85;;;;;;;;;;5094419;28;20195;-79
2021/01/25 14:15:23;;;;;;;33.58;30.73;;;;;;;;;;5094365;28;20555;-79
2021/01/25 14:17:50;;;;;;;34.08;31.15;;;;;;;;;;5094545;28;20220;-79